Time;durP1;ratioP1;P1;durP2;ratioP2;P2;SDS_P1;SDS_P2;PMS_P1;PMS_P2;Temp;Humidity;BMP_temperature;BMP_pressure;BME280_temperature;BME280_humidity;BME280_pressure;Samples;Min_cycle;Max_cycle;Signal;HPM_P1;HPM_P2
2022/07/13 00:00:11;;;;;;;6.95;6.65;;;;;;;-143.83;100.00;62900.06;5111473;28;20119;-62
2022/07/13 00:02:37;;;;;;;6.30;6.00;;;;;;;-143.83;100.00;62900.06;5115912;27;20393;-61
2022/07/13 00:05:03;;;;;;;6.10;5.90;;;;;;;-143.83;100.00;62900.06;5114990;28;20047;-62
2022/07/13 00:07:29;;;;;;;6.60;6.30;;;;;;;-143.83;100.00;62900.06;5115190;28;20028;-62
2022/07/13 00:09:54;;;;;;;6.30;6.00;;;;;;;-143.83;100.00;62900.06;5106455;28;20026;-62
2022/07/13 00:12:21;;;;;;;6.60;6.30;;;;;;;-143.83;100.00;62900.06;5110155;28;20028;-62
2022/07/13 00:14:47;;;;;;;6.70;6.40;;;;;;;-143.83;100.00;62900.06;5115229;28;20039;-61
2022/07/13 00:17:12;;;;;;;6.90;6.60;;;;;;;-143.83;100.00;62900.06;5111878;28;20027;-62
2022/07/13 00:19:38;;;;;;;6.47;6.18;;;;;;;-143.83;100.00;62900.06;5120200;27;20102;-62
2022/07/13 00:22:03;;;;;;;6.20;6.00;;;;;;;-143.83;100.00;62900.06;5129501;27;20486;-62
2022/07/13 00:24:29;;;;;;;6.28;6.00;;;;;;;-143.83;100.00;62900.06;5114020;28;20055;-62
2022/07/13 00:26:54;;;;;;;6.50;6.20;;;;;;;-143.83;100.00;62900.06;5111328;28;20034;-61
2022/07/13 00:29:19;;;;;;;6.70;6.40;;;;;;;-143.83;100.00;62900.06;5115138;28;20446;-61
2022/07/13 00:31:46;;;;;;;6.50;6.20;;;;;;;-143.83;100.00;62900.06;5114618;28;20119;-62
2022/07/13 00:34:14;;;;;;;6.63;6.32;;;;;;;-143.83;100.00;62900.06;5114727;28;20023;-62
2022/07/13 00:36:39;;;;;;;6.75;6.45;;;;;;;-143.83;100.00;62900.06;5126045;27;20027;-61
2022/07/13 00:39:05;;;;;;;6.75;6.45;;;;;;;-143.83;100.00;62900.06;5114105;28;20078;-61
2022/07/13 00:41:30;;;;;;;6.80;6.50;;;;;;;-143.83;100.00;62900.06;5106410;28;20032;-62
2022/07/13 00:44:07;;;;;;;6.70;6.40;;;;;;;-143.83;100.00;62900.06;5109513;28;20028;-62
2022/07/13 00:46:34;;;;;;;6.35;6.07;;;;;;;-143.83;100.00;62900.06;5114540;28;20031;-63
2022/07/13 00:49:00;;;;;;;6.60;6.30;;;;;;;-143.83;100.00;62900.06;5100829;28;20028;-62
2022/07/13 00:51:27;;;;;;;6.43;6.13;;;;;;;-143.83;100.00;62900.06;5114130;28;20031;-60
2022/07/13 00:53:53;;;;;;;6.65;6.35;;;;;;;-143.83;100.00;62900.06;5114874;27;20051;-61
2022/07/13 00:56:19;;;;;;;6.60;6.30;;;;;;;-143.83;100.00;62900.06;5114081;28;20094;-61
2022/07/13 00:58:44;;;;;;;6.43;6.13;;;;;;;-143.83;100.00;62900.06;5110314;28;20180;-61
2022/07/13 01:01:10;;;;;;;6.60;6.30;;;;;;;-143.83;100.00;62900.06;5113068;28;20028;-62
2022/07/13 01:03:35;;;;;;;6.55;6.25;;;;;;;-143.83;100.00;62900.06;5113888;28;20062;-62
2022/07/13 01:06:01;;;;;;;6.40;6.10;;;;;;;-143.83;100.00;62900.06;5113946;28;20031;-62
2022/07/13 01:08:27;;;;;;;6.57;6.28;;;;;;;-143.83;100.00;62900.06;5109300;28;20077;-61
2022/07/13 01:10:53;;;;;;;6.78;6.47;;;;;;;-143.83;100.00;62900.06;5112969;27;20019;-62
2022/07/13 01:13:20;;;;;;;6.50;6.20;;;;;;;-143.83;100.00;62900.06;5113779;27;20023;-62
2022/07/13 01:15:46;;;;;;;6.50;6.20;;;;;;;-143.83;100.00;62900.06;5113999;28;20024;-61
2022/07/13 01:18:12;;;;;;;6.50;6.20;;;;;;;-143.83;100.00;62900.06;5116043;27;20040;-61
2022/07/13 01:20:41;;;;;;;6.60;6.30;;;;;;;-143.83;100.00;62900.06;5100143;28;20421;-61
2022/07/13 01:23:11;;;;;;;6.40;6.10;;;;;;;-143.83;100.00;62900.06;5104068;28;20399;-61
2022/07/13 01:25:37;;;;;;;6.40;6.10;;;;;;;-143.83;100.00;62900.06;5113488;28;20028;-61
2022/07/13 01:28:03;;;;;;;6.53;6.22;;;;;;;-143.83;100.00;62900.06;5104597;27;20035;-61
2022/07/13 01:30:28;;;;;;;6.65;6.35;;;;;;;-143.83;100.00;62900.06;5112523;28;20482;-62
2022/07/13 01:32:54;;;;;;;6.70;6.40;;;;;;;-143.83;100.00;62900.06;5113638;28;20027;-62
2022/07/13 01:35:21;;;;;;;6.50;6.20;;;;;;;-143.83;100.00;62900.06;5113501;28;20168;-62
2022/07/13 01:37:47;;;;;;;6.47;6.18;;;;;;;-143.83;100.00;62900.06;5113143;27;20126;-62
2022/07/13 01:40:13;;;;;;;6.40;6.10;;;;;;;-143.83;100.00;62900.06;5113110;28;20491;-62
2022/07/13 01:42:47;;;;;;;6.65;6.35;;;;;;;-143.83;100.00;62900.06;5113007;28;20046;-61
2022/07/13 01:45:15;;;;;;;6.50;6.20;;;;;;;-143.83;100.00;62900.06;5114295;27;20069;-61
2022/07/13 01:47:44;;;;;;;6.10;5.90;;;;;;;-143.83;100.00;62900.06;5100091;28;20483;-62
2022/07/13 01:50:11;;;;;;;6.50;6.20;;;;;;;-143.83;100.00;62900.06;5113119;28;20031;-62
2022/07/13 01:52:37;;;;;;;6.40;6.10;;;;;;;-143.83;100.00;62900.06;5112971;28;20027;-62
2022/07/13 01:55:07;;;;;;;6.10;5.90;;;;;;;-143.83;100.00;62900.06;5113041;28;20213;-62
2022/07/13 01:57:33;;;;;;;6.65;6.35;;;;;;;-143.83;100.00;62900.06;5113017;28;20061;-61
2022/07/13 02:00:06;;;;;;;6.50;6.20;;;;;;;-143.83;100.00;62900.06;5104146;28;20031;-61
2022/07/13 02:02:31;;;;;;;6.35;6.07;;;;;;;-143.83;100.00;62900.06;5112989;28;20050;-60
2022/07/13 02:04:57;;;;;;;6.50;6.20;;;;;;;-143.83;100.00;62900.06;5112850;28;20051;-62
2022/07/13 02:07:22;;;;;;;6.20;5.97;;;;;;;-143.83;100.00;62900.06;5099456;28;20028;-62
2022/07/13 02:09:50;;;;;;;6.53;6.22;;;;;;;-143.83;100.00;62900.06;5112781;28;20016;-62
2022/07/13 02:12:16;;;;;;;6.60;6.30;;;;;;;-143.83;100.00;62900.06;5110991;28;20054;-61
2022/07/13 02:14:42;;;;;;;6.57;6.28;;;;;;;-143.83;100.00;62900.06;5115876;27;20024;-61
2022/07/13 02:17:07;;;;;;;6.22;6.00;;;;;;;-143.83;100.00;62900.06;5104006;28;20038;-61
2022/07/13 02:19:34;;;;;;;6.75;6.45;;;;;;;-143.83;100.00;62900.06;5117001;27;20055;-60
2022/07/13 02:22:00;;;;;;;6.63;6.32;;;;;;;-143.83;100.00;62900.06;5113294;28;20031;-60
2022/07/13 02:24:25;;;;;;;6.43;6.13;;;;;;;-143.83;100.00;62900.06;5112687;28;20028;-62
2022/07/13 02:26:51;;;;;;;6.50;6.20;;;;;;;-143.83;100.00;62900.06;5112614;28;20019;-62
2022/07/13 02:29:16;;;;;;;6.30;6.03;;;;;;;-143.83;100.00;62900.06;5098399;28;20032;-61
2022/07/13 02:31:42;;;;;;;6.47;6.18;;;;;;;-143.83;100.00;62900.06;5102921;28;20487;-62
2022/07/13 02:34:08;;;;;;;6.47;6.18;;;;;;;-143.83;100.00;62900.06;5110860;28;20023;-60
2022/07/13 02:36:34;;;;;;;6.38;6.07;;;;;;;-143.83;100.00;62900.06;5119420;27;20470;-61
2022/07/13 02:38:59;;;;;;;6.50;6.20;;;;;;;-143.83;100.00;62900.06;5091934;28;20063;-61
2022/07/13 02:41:25;;;;;;;6.75;6.45;;;;;;;-143.83;100.00;62900.06;5105084;28;20023;-62
2022/07/13 02:43:50;;;;;;;6.60;6.30;;;;;;;-143.83;100.00;62900.06;5112053;28;20039;-62
2022/07/13 02:46:16;;;;;;;6.60;6.30;;;;;;;-143.83;100.00;62900.06;5100037;28;20031;-62
2022/07/13 02:48:41;;;;;;;6.20;6.00;;;;;;;-143.83;100.00;62900.06;5105753;28;20023;-61
2022/07/13 02:51:07;;;;;;;6.53;6.22;;;;;;;-143.83;100.00;62900.06;5107065;28;20032;-62
2022/07/13 02:53:32;;;;;;;6.32;6.03;;;;;;;-143.83;100.00;62900.06;5123435;27;20459;-62
2022/07/13 02:55:58;;;;;;;6.38;6.07;;;;;;;-143.83;100.00;62900.06;5112134;28;20028;-60
2022/07/13 02:58:25;;;;;;;6.40;6.10;;;;;;;-143.83;100.00;62900.06;5100478;28;20047;-61
2022/07/13 03:00:51;;;;;;;6.60;6.30;;;;;;;-143.83;100.00;62900.06;5125697;28;20035;-61
2022/07/13 03:03:17;;;;;;;6.55;6.25;;;;;;;-143.83;100.00;62900.06;5112182;28;20054;-61
2022/07/13 03:05:43;;;;;;;6.75;6.45;;;;;;;-143.83;100.00;62900.06;5111913;28;20027;-60
2022/07/13 03:08:10;;;;;;;6.60;6.30;;;;;;;-143.83;100.00;62900.06;5111359;28;20405;-62
2022/07/13 03:10:36;;;;;;;6.55;6.25;;;;;;;-143.83;100.00;62900.06;5115891;27;20067;-63
2022/07/13 03:13:01;;;;;;;6.50;6.20;;;;;;;-143.83;100.00;62900.06;5105496;28;20070;-62
2022/07/13 03:15:27;;;;;;;6.68;6.38;;;;;;;-143.83;100.00;62900.06;5108702;28;20031;-62
2022/07/13 03:17:52;;;;;;;6.50;6.20;;;;;;;-143.83;100.00;62900.06;5112018;28;20383;-62
2022/07/13 03:20:19;;;;;;;6.50;6.20;;;;;;;-143.83;100.00;62900.06;5110154;28;20023;-62
2022/07/13 03:22:45;;;;;;;6.47;6.18;;;;;;;-143.83;100.00;62900.06;5106132;28;20032;-63
2022/07/13 03:25:11;;;;;;;6.25;6.03;;;;;;;-143.83;100.00;62900.06;5110866;28;20023;-62
2022/07/13 03:27:37;;;;;;;6.65;6.35;;;;;;;-143.83;100.00;62900.06;5110947;28;20493;-61
2022/07/13 03:30:03;;;;;;;6.70;6.40;;;;;;;-143.83;100.00;62900.06;5100623;28;20035;-62
2022/07/13 03:32:29;;;;;;;6.63;6.32;;;;;;;-143.83;100.00;62900.06;5110424;28;20050;-63
2022/07/13 03:34:54;;;;;;;6.80;6.50;;;;;;;-143.83;100.00;62900.06;5110869;28;20037;-62
2022/07/13 03:37:20;;;;;;;6.97;6.68;;;;;;;-143.83;100.00;62900.06;5111864;28;20390;-61
2022/07/13 03:39:45;;;;;;;7.00;6.70;;;;;;;-143.83;100.00;62900.06;5110612;28;20047;-61
2022/07/13 03:42:10;;;;;;;7.00;6.70;;;;;;;-143.83;100.00;62900.06;5104628;28;20111;-62
2022/07/13 03:44:36;;;;;;;6.93;6.63;;;;;;;-143.83;100.00;62900.06;5118904;28;20588;-61
2022/07/13 03:47:03;;;;;;;6.97;6.68;;;;;;;-143.83;100.00;62900.06;5109118;28;20089;-62
2022/07/13 03:49:28;;;;;;;7.28;6.97;;;;;;;-143.83;100.00;62900.06;5110091;28;20028;-62
2022/07/13 03:51:55;;;;;;;6.88;6.57;;;;;;;-143.83;100.00;62900.06;5109359;28;20106;-60
2022/07/13 03:54:21;;;;;;;7.20;6.90;;;;;;;-143.83;100.00;62900.06;5111070;28;20024;-61
2022/07/13 03:56:47;;;;;;;7.38;7.07;;;;;;;-143.83;100.00;62900.06;5111342;28;20020;-62
2022/07/13 03:59:12;;;;;;;7.20;6.90;;;;;;;-143.83;100.00;62900.06;5096613;27;20034;-62
2022/07/13 04:01:38;;;;;;;7.30;7.00;;;;;;;-143.83;100.00;62900.06;5105928;28;20112;-64
2022/07/13 04:04:04;;;;;;;7.07;6.78;;;;;;;-143.83;100.00;62900.06;5111117;28;20047;-62
2022/07/13 04:06:30;;;;;;;7.30;7.00;;;;;;;-143.83;100.00;62900.06;5114368;27;20378;-62
2022/07/13 04:08:56;;;;;;;7.38;7.07;;;;;;;-143.83;100.00;62900.06;5113164;28;20032;-62
2022/07/13 04:11:25;;;;;;;7.30;7.00;;;;;;;-143.83;100.00;62900.06;5111491;28;20027;-62
2022/07/13 04:13:51;;;;;;;7.30;7.00;;;;;;;-143.83;100.00;62900.06;5110385;28;20024;-62
2022/07/13 04:16:16;;;;;;;7.30;7.00;;;;;;;-143.83;100.00;62900.06;5105909;27;20040;-62
2022/07/13 04:18:42;;;;;;;7.25;6.95;;;;;;;-143.83;100.00;62900.06;5115214;27;20047;-62
2022/07/13 04:21:07;;;;;;;7.30;7.00;;;;;;;-143.83;100.00;62900.06;5112987;28;20031;-62
2022/07/13 04:23:33;;;;;;;7.45;7.15;;;;;;;-143.83;100.00;62900.06;5112363;28;20032;-62
2022/07/13 04:25:59;;;;;;;6.90;6.60;;;;;;;-143.83;100.00;62900.06;5108736;27;20027;-62
2022/07/13 04:28:24;;;;;;;7.28;6.97;;;;;;;-143.83;100.00;62900.06;5107312;27;20093;-63
2022/07/13 04:30:51;;;;;;;7.30;7.00;;;;;;;-143.83;100.00;62900.06;5119878;27;20027;-63
2022/07/13 04:33:16;;;;;;;7.30;7.00;;;;;;;-143.83;100.00;62900.06;5110082;27;20028;-63
2022/07/13 04:35:42;;;;;;;7.20;6.90;;;;;;;-143.83;100.00;62900.06;5118119;27;20032;-64
2022/07/13 04:38:07;;;;;;;7.22;6.93;;;;;;;-143.83;100.00;62900.06;5111249;27;20032;-62
2022/07/13 04:40:33;;;;;;;7.40;7.10;;;;;;;-143.83;100.00;62900.06;5106428;28;20019;-62
2022/07/13 04:42:58;;;;;;;7.10;6.80;;;;;;;-143.83;100.00;62900.06;5112810;28;20036;-62
2022/07/13 04:45:24;;;;;;;7.07;6.78;;;;;;;-143.83;100.00;62900.06;5106044;28;20032;-62
2022/07/13 04:47:49;;;;;;;7.20;6.90;;;;;;;-143.83;100.00;62900.06;5097913;28;20052;-62
2022/07/13 04:50:15;;;;;;;7.40;7.10;;;;;;;-143.83;100.00;62900.06;5102328;28;20467;-63
2022/07/13 04:52:40;;;;;;;7.00;6.70;;;;;;;-143.83;100.00;62900.06;5122216;27;20038;-63
2022/07/13 04:55:07;;;;;;;7.40;7.10;;;;;;;-143.83;100.00;62900.06;5118914;27;20562;-62
2022/07/13 04:57:33;;;;;;;7.10;6.80;;;;;;;-143.83;100.00;62900.06;5104523;27;20073;-62
2022/07/13 04:59:59;;;;;;;7.10;6.80;;;;;;;-143.83;100.00;62900.06;5110093;27;20407;-63
2022/07/13 05:02:24;;;;;;;7.32;7.03;;;;;;;-143.83;100.00;62900.06;5113819;27;20050;-63
2022/07/13 05:04:49;;;;;;;6.90;6.60;;;;;;;-143.83;100.00;62900.06;5109000;28;20031;-63
2022/07/13 05:07:15;;;;;;;6.80;6.50;;;;;;;-143.83;100.00;62900.06;5101586;28;20032;-62
2022/07/13 05:09:41;;;;;;;7.20;6.90;;;;;;;-143.83;100.00;62900.06;5107958;27;20031;-61
2022/07/13 05:12:06;;;;;;;7.15;6.85;;;;;;;-143.83;100.00;62900.06;5114854;27;20034;-62
2022/07/13 05:14:32;;;;;;;7.20;6.90;;;;;;;-143.83;100.00;62900.06;5110710;27;20430;-62
2022/07/13 05:16:57;;;;;;;6.82;6.53;;;;;;;-143.83;100.00;62900.06;5107406;27;20059;-61
2022/07/13 05:19:23;;;;;;;7.20;6.90;;;;;;;-143.83;100.00;62900.06;5108318;28;20043;-62
2022/07/13 05:21:48;;;;;;;7.50;7.20;;;;;;;-143.83;100.00;62900.06;5103291;27;20484;-61
2022/07/13 05:24:14;;;;;;;7.70;7.40;;;;;;;-143.83;100.00;62900.06;5105870;28;20032;-62
2022/07/13 05:26:39;;;;;;;7.30;7.00;;;;;;;-143.83;100.00;62900.06;5113662;27;20027;-63
2022/07/13 05:29:06;;;;;;;7.32;7.03;;;;;;;-143.83;100.00;62900.06;5106310;27;20028;-63
2022/07/13 05:31:32;;;;;;;7.50;7.20;;;;;;;-143.83;100.00;62900.06;5113221;28;20012;-62
2022/07/13 05:33:58;;;;;;;7.32;7.03;;;;;;;-143.83;100.00;62900.06;5113422;28;20109;-62
2022/07/13 05:36:24;;;;;;;7.15;6.85;;;;;;;-143.83;100.00;62900.06;5113273;28;20015;-63
2022/07/13 05:38:50;;;;;;;7.28;6.97;;;;;;;-143.83;100.00;62900.06;5112601;28;20054;-63
2022/07/13 05:41:16;;;;;;;7.10;6.80;;;;;;;-143.83;100.00;62900.06;5113533;27;20069;-62
2022/07/13 05:43:41;;;;;;;6.88;6.57;;;;;;;-143.83;100.00;62900.06;5113216;28;20050;-62
2022/07/13 05:46:08;;;;;;;6.90;6.60;;;;;;;-143.83;100.00;62900.06;5103091;28;20474;-68
2022/07/13 05:48:37;;;;;;;6.85;6.55;;;;;;;-143.83;100.00;62900.06;5100893;28;20031;-62
2022/07/13 05:51:04;;;;;;;6.90;6.60;;;;;;;-143.83;100.00;62900.06;5113005;27;20375;-61
2022/07/13 05:53:30;;;;;;;7.07;6.78;;;;;;;-143.83;100.00;62900.06;5113145;28;20486;-62
2022/07/13 05:55:56;;;;;;;6.70;6.40;;;;;;;-143.83;100.00;62900.06;5111514;28;20042;-62
2022/07/13 05:58:22;;;;;;;6.85;6.55;;;;;;;-143.83;100.00;62900.06;5114927;27;20114;-62
2022/07/13 06:00:47;;;;;;;7.05;6.75;;;;;;;-143.83;100.00;62900.06;5112967;27;20150;-61
2022/07/13 06:03:13;;;;;;;7.00;6.70;;;;;;;-143.83;100.00;62900.06;5101815;28;20403;-61
2022/07/13 06:05:39;;;;;;;7.05;6.75;;;;;;;-143.83;100.00;62900.06;5111342;28;20028;-62
2022/07/13 06:08:04;;;;;;;7.15;6.85;;;;;;;-143.83;100.00;62900.06;5113255;28;20031;-62
2022/07/13 06:10:30;;;;;;;7.22;6.93;;;;;;;-143.83;100.00;62900.06;5112398;28;20020;-63
2022/07/13 06:12:55;;;;;;;7.20;6.90;;;;;;;-143.83;100.00;62900.06;5112332;28;20051;-63
2022/07/13 06:15:21;;;;;;;7.30;7.00;;;;;;;-143.83;100.00;62900.06;5111227;28;20032;-62
2022/07/13 06:17:46;;;;;;;7.07;6.78;;;;;;;-143.83;100.00;62900.06;5112640;28;20057;-62
2022/07/13 06:20:12;;;;;;;6.80;6.50;;;;;;;-143.83;100.00;62900.06;5111745;28;20624;-62
2022/07/13 06:22:37;;;;;;;6.68;6.38;;;;;;;-143.83;100.00;62900.06;5111742;28;20027;-62
2022/07/13 06:25:05;;;;;;;6.70;6.40;;;;;;;-143.83;100.00;62900.06;5111195;28;20114;-61
2022/07/13 06:27:30;;;;;;;6.60;6.30;;;;;;;-143.83;100.00;62900.06;5108147;28;20019;-62
2022/07/13 06:29:56;;;;;;;6.90;6.60;;;;;;;-143.83;100.00;62900.06;5108431;28;20535;-61
2022/07/13 06:32:21;;;;;;;6.80;6.50;;;;;;;-143.83;100.00;62900.06;5104633;28;20020;-61
2022/07/13 06:34:47;;;;;;;6.70;6.40;;;;;;;-143.83;100.00;62900.06;5112665;28;20032;-63
2022/07/13 06:37:13;;;;;;;6.80;6.50;;;;;;;-143.83;100.00;62900.06;5111981;28;20433;-63
2022/07/13 06:39:38;;;;;;;7.10;6.80;;;;;;;-143.83;100.00;62900.06;5112016;28;20082;-62
2022/07/13 06:42:05;;;;;;;7.00;6.70;;;;;;;-143.83;100.00;62900.06;5110710;28;20130;-64
2022/07/13 06:44:31;;;;;;;7.00;6.70;;;;;;;-143.83;100.00;62900.06;5112505;28;20046;-63
2022/07/13 06:46:59;;;;;;;6.80;6.50;;;;;;;-143.83;100.00;62900.06;5111078;28;20027;-63
2022/07/13 06:49:26;;;;;;;6.80;6.50;;;;;;;-143.83;100.00;62900.06;5109965;28;20040;-62
2022/07/13 06:51:54;;;;;;;6.60;6.30;;;;;;;-143.83;100.00;62900.06;5112080;28;20019;-62
2022/07/13 06:54:20;;;;;;;6.90;6.60;;;;;;;-143.83;100.00;62900.06;5112657;28;20126;-62
2022/07/13 06:56:46;;;;;;;6.90;6.60;;;;;;;-143.83;100.00;62900.06;5112597;27;20538;-62
2022/07/13 06:59:11;;;;;;;6.80;6.50;;;;;;;-143.83;100.00;62900.06;5105323;28;20028;-62
2022/07/13 07:01:37;;;;;;;6.88;6.57;;;;;;;-143.83;100.00;62900.06;5109904;28;20035;-63
2022/07/13 07:04:03;;;;;;;6.70;6.40;;;;;;;-143.83;100.00;62900.06;5111712;28;20051;-62
2022/07/13 07:06:28;;;;;;;7.05;6.75;;;;;;;-143.83;100.00;62900.06;5103609;28;20103;-63
2022/07/13 07:08:54;;;;;;;6.78;6.47;;;;;;;-143.83;100.00;62900.06;5111556;28;20020;-63
2022/07/13 07:11:19;;;;;;;7.00;6.70;;;;;;;-143.83;100.00;62900.06;5110634;28;20016;-63
2022/07/13 07:13:45;;;;;;;6.75;6.45;;;;;;;-143.83;100.00;62900.06;5099379;28;20071;-63
2022/07/13 07:16:10;;;;;;;6.85;6.55;;;;;;;-143.83;100.00;62900.06;5111898;28;20023;-62
2022/07/13 07:18:36;;;;;;;6.90;6.60;;;;;;;-143.83;100.00;62900.06;5110393;28;20513;-63
2022/07/13 07:21:01;;;;;;;6.82;6.53;;;;;;;-143.83;100.00;62900.06;5111980;28;20032;-63
2022/07/13 07:23:27;;;;;;;7.03;6.72;;;;;;;-143.83;100.00;62900.06;5111723;28;20039;-63
2022/07/13 07:25:52;;;;;;;6.80;6.50;;;;;;;-143.83;100.00;62900.06;5111531;28;20444;-61
2022/07/13 07:28:19;;;;;;;6.90;6.60;;;;;;;-143.83;100.00;62900.06;5111538;28;20028;-62
2022/07/13 07:30:46;;;;;;;6.80;6.50;;;;;;;-143.83;100.00;62900.06;5111843;28;20491;-62
2022/07/13 07:33:11;;;;;;;6.68;6.38;;;;;;;-143.83;100.00;62900.06;5112932;28;20024;-62
2022/07/13 07:35:37;;;;;;;6.80;6.50;;;;;;;-143.83;100.00;62900.06;5115969;28;20045;-63
2022/07/13 07:38:02;;;;;;;7.00;6.70;;;;;;;-143.83;100.00;62900.06;5114957;28;20028;-62
2022/07/13 07:40:28;;;;;;;6.90;6.60;;;;;;;-143.83;100.00;62900.06;5115725;28;20031;-61
2022/07/13 07:42:54;;;;;;;7.00;6.70;;;;;;;-143.83;100.00;62900.06;5122142;27;20487;-62
2022/07/13 07:45:19;;;;;;;6.72;6.43;;;;;;;-143.83;100.00;62900.06;5121402;27;20027;-62
2022/07/13 07:47:45;;;;;;;6.68;6.38;;;;;;;-143.83;100.00;62900.06;5115677;27;20023;-63
2022/07/13 07:50:11;;;;;;;6.60;6.30;;;;;;;-143.83;100.00;62900.06;5115431;28;20099;-63
2022/07/13 07:52:37;;;;;;;6.70;6.40;;;;;;;-143.83;100.00;62900.06;5118052;27;20027;-62
2022/07/13 07:55:02;;;;;;;6.80;6.50;;;;;;;-143.83;100.00;62900.06;5110109;28;20031;-62
2022/07/13 07:57:28;;;;;;;6.70;6.40;;;;;;;-143.83;100.00;62900.06;5120162;27;20028;-63
2022/07/13 07:59:54;;;;;;;6.85;6.55;;;;;;;-143.83;100.00;62900.06;5115161;28;20085;-63
2022/07/13 08:02:19;;;;;;;6.60;6.30;;;;;;;-143.83;100.00;62900.06;5115094;28;20024;-63
2022/07/13 08:04:45;;;;;;;6.70;6.40;;;;;;;-143.83;100.00;62900.06;5115243;28;20026;-63
2022/07/13 08:07:11;;;;;;;6.75;6.45;;;;;;;-143.83;100.00;62900.06;5115598;28;20023;-62
2022/07/13 08:09:36;;;;;;;6.75;6.45;;;;;;;-143.83;100.00;62900.06;5109811;28;20056;-62
2022/07/13 08:12:04;;;;;;;6.70;6.40;;;;;;;-143.83;100.00;62900.06;5095864;28;20031;-63
2022/07/13 08:14:30;;;;;;;6.68;6.38;;;;;;;-143.83;100.00;62900.06;5108263;28;20432;-63
2022/07/13 08:16:55;;;;;;;7.00;6.70;;;;;;;-143.83;100.00;62900.06;5114722;28;20080;-63
2022/07/13 08:19:21;;;;;;;7.00;6.70;;;;;;;-143.83;100.00;62900.06;5113644;28;20027;-63
2022/07/13 08:21:47;;;;;;;6.50;6.20;;;;;;;-143.83;100.00;62900.06;5115219;28;20073;-63
2022/07/13 08:24:13;;;;;;;6.60;6.30;;;;;;;-143.83;100.00;62900.06;5123129;27;20386;-63
2022/07/13 08:26:38;;;;;;;6.65;6.35;;;;;;;-143.83;100.00;62900.06;5115383;27;20055;-63
2022/07/13 08:29:05;;;;;;;6.72;6.43;;;;;;;-143.83;100.00;62900.06;5114837;28;20026;-61
2022/07/13 08:31:30;;;;;;;6.70;6.40;;;;;;;-143.83;100.00;62900.06;5114622;28;20019;-63
2022/07/13 08:39:25;;;;;;;6.82;6.53;;;;;;;-143.83;100.00;62900.06;5114422;28;20112;-63
2022/07/13 08:41:51;;;;;;;7.10;6.80;;;;;;;-143.83;100.00;62900.06;5114321;28;20063;-63
2022/07/13 08:44:17;;;;;;;6.70;6.40;;;;;;;-143.83;100.00;62900.06;5114028;28;20047;-62
2022/07/13 08:46:42;;;;;;;7.10;6.80;;;;;;;-143.83;100.00;62900.06;5113054;28;20031;-64
2022/07/13 08:49:09;;;;;;;6.70;6.40;;;;;;;-143.83;100.00;62900.06;5105263;27;20570;-62
2022/07/13 08:51:35;;;;;;;6.82;6.53;;;;;;;-143.83;100.00;62900.06;5107258;28;20451;-64
2022/07/13 08:54:05;;;;;;;6.82;6.53;;;;;;;-143.83;100.00;62900.06;5099785;28;20024;-63
2022/07/13 08:56:32;;;;;;;6.60;6.30;;;;;;;-143.83;100.00;62900.06;5114317;28;20031;-63
2022/07/13 08:58:58;;;;;;;6.90;6.60;;;;;;;-143.83;100.00;62900.06;5094690;28;20047;-63
2022/07/13 09:01:24;;;;;;;6.80;6.50;;;;;;;-143.83;100.00;62900.06;5106212;28;20023;-63
2022/07/13 09:03:49;;;;;;;6.90;6.60;;;;;;;-143.83;100.00;62900.06;5113553;28;20050;-61
2022/07/13 09:06:40;;;;;;;6.97;6.68;;;;;;;-143.83;100.00;62900.06;5113602;28;20038;-62
2022/07/13 09:09:26;;;;;;;6.70;6.40;;;;;;;-143.83;100.00;62900.06;5113808;28;20443;-61
2022/07/13 09:11:52;;;;;;;6.88;6.57;;;;;;;-143.83;100.00;62900.06;5106051;28;20467;-63
2022/07/13 09:14:26;;;;;;;6.70;6.40;;;;;;;-143.83;100.00;62900.06;5113902;28;20092;-62
2022/07/13 09:16:53;;;;;;;6.70;6.40;;;;;;;-143.83;100.00;62900.06;5113995;28;20023;-63
2022/07/13 09:19:24;;;;;;;6.85;6.55;;;;;;;-143.83;100.00;62900.06;5114106;28;20096;-62
2022/07/13 09:21:49;;;;;;;6.90;6.60;;;;;;;-143.83;100.00;62900.06;5105837;28;20028;-62
2022/07/13 09:24:15;;;;;;;6.80;6.50;;;;;;;-143.83;100.00;62900.06;5108108;28;20435;-63
2022/07/13 09:26:41;;;;;;;6.90;6.60;;;;;;;-143.83;100.00;62900.06;5113651;28;20107;-62
2022/07/13 09:29:07;;;;;;;6.75;6.45;;;;;;;-143.83;100.00;62900.06;5113558;28;20020;-62
2022/07/13 09:31:54;;;;;;;6.80;6.50;;;;;;;-143.83;100.00;62900.06;5113610;28;20049;-62
2022/07/13 09:34:20;;;;;;;6.80;6.50;;;;;;;-143.83;100.00;62900.06;5113731;28;20016;-62
2022/07/13 09:36:46;;;;;;;7.00;6.70;;;;;;;-143.83;100.00;62900.06;5104241;28;20061;-63
2022/07/13 09:39:11;;;;;;;6.80;6.50;;;;;;;-143.83;100.00;62900.06;5108385;28;20071;-63
2022/07/13 09:41:37;;;;;;;6.78;6.47;;;;;;;-143.83;100.00;62900.06;5111765;28;20479;-63
2022/07/13 09:46:59;;;;;;;6.70;6.40;;;;;;;-143.83;100.00;62900.06;5113779;28;20156;-63
2022/07/13 09:49:32;;;;;;;6.40;6.10;;;;;;;-143.83;100.00;62900.06;5105604;28;20038;-64
2022/07/13 09:52:00;;;;;;;6.88;6.57;;;;;;;-143.83;100.00;62900.06;5113546;28;20024;-63
2022/07/13 09:54:29;;;;;;;6.70;6.40;;;;;;;-143.83;100.00;62900.06;5113589;28;20068;-64
2022/07/13 09:57:04;;;;;;;6.70;6.40;;;;;;;-143.83;100.00;62900.06;5111924;28;20441;-62
2022/07/13 09:59:30;;;;;;;7.28;6.97;;;;;;;-143.83;100.00;62900.06;5113034;28;20024;-63
2022/07/13 10:01:56;;;;;;;6.45;6.15;;;;;;;-143.83;100.00;62900.06;5112722;28;20046;-64
2022/07/13 10:04:23;;;;;;;6.90;6.60;;;;;;;-143.83;100.00;62900.06;5113225;28;20024;-64
2022/07/13 10:06:49;;;;;;;6.90;6.60;;;;;;;-143.83;100.00;62900.06;5112899;28;20023;-64
2022/07/13 10:09:19;;;;;;;6.88;6.57;;;;;;;-143.83;100.00;62900.06;5111893;28;20020;-64
2022/07/13 10:11:45;;;;;;;6.70;6.40;;;;;;;-143.83;100.00;62900.06;5111730;28;20035;-62
2022/07/13 10:14:12;;;;;;;6.72;6.43;;;;;;;-143.83;100.00;62900.06;5095881;28;20376;-62
2022/07/13 10:16:38;;;;;;;6.90;6.60;;;;;;;-143.83;100.00;62900.06;5112762;28;20492;-63
2022/07/13 10:19:05;;;;;;;6.80;6.50;;;;;;;-143.83;100.00;62900.06;5112634;28;20093;-63
2022/07/13 10:21:52;;;;;;;6.80;6.50;;;;;;;-143.83;100.00;62900.06;5112687;28;20020;-63
2022/07/13 10:24:18;;;;;;;7.03;6.72;;;;;;;-143.83;100.00;62900.06;5112578;28;20471;-63
2022/07/13 10:26:48;;;;;;;6.80;6.50;;;;;;;-143.83;100.00;62900.06;5112569;28;20019;-62
2022/07/13 10:29:15;;;;;;;6.72;6.43;;;;;;;-143.83;100.00;62900.06;5100146;28;21873;-63
2022/07/13 10:31:43;;;;;;;7.05;6.75;;;;;;;-143.83;100.00;62900.06;5101797;28;20547;-63
2022/07/13 10:34:11;;;;;;;6.72;6.43;;;;;;;-143.83;100.00;62900.06;5112640;28;20383;-63
2022/07/13 10:36:51;;;;;;;6.95;6.65;;;;;;;-143.83;100.00;62900.06;5112239;28;20032;-63
2022/07/13 10:39:29;;;;;;;6.93;6.63;;;;;;;-143.83;100.00;62900.06;5111796;28;20071;-63
2022/07/13 10:42:15;;;;;;;6.82;6.53;;;;;;;-143.83;100.00;62900.06;5113434;27;20035;-63
2022/07/13 10:44:42;;;;;;;6.97;6.68;;;;;;;-143.83;100.00;62900.06;5102641;28;20020;-63
2022/07/13 10:47:12;;;;;;;6.90;6.60;;;;;;;-143.83;100.00;62900.06;5112044;28;20110;-63
2022/07/13 10:49:47;;;;;;;6.65;6.35;;;;;;;-143.83;100.00;62900.06;5112199;28;20028;-63
2022/07/13 10:52:19;;;;;;;7.18;6.88;;;;;;;-143.83;100.00;62900.06;5112062;28;20031;-62
2022/07/13 10:55:24;;;;;;;6.70;6.40;;;;;;;-143.83;100.00;62900.06;5098073;28;20019;-62
2022/07/13 10:57:49;;;;;;;6.70;6.40;;;;;;;-143.83;100.00;62900.06;5049226;28;20170;-62
2022/07/13 11:00:22;;;;;;;6.80;6.50;;;;;;;-143.83;100.00;62900.06;5049257;28;20033;-62
2022/07/13 11:02:54;;;;;;;6.90;6.60;;;;;;;-143.83;100.00;62900.06;5081574;28;20027;-63
2022/07/13 11:05:22;;;;;;;7.10;6.80;;;;;;;-143.83;100.00;62900.06;5098470;28;20073;-63
2022/07/13 11:07:49;;;;;;;7.00;6.70;;;;;;;-143.83;100.00;62900.06;5113145;28;20149;-62
2022/07/13 11:10:22;;;;;;;7.10;6.80;;;;;;;-143.83;100.00;62900.06;5113701;28;20024;-63
2022/07/13 11:13:05;;;;;;;6.80;6.50;;;;;;;-143.83;100.00;62900.06;5114952;28;20033;-63
2022/07/13 11:15:55;;;;;;;6.78;6.47;;;;;;;-143.83;100.00;62900.06;5114608;28;20028;-63